Granville Center, Massachusetts
Current Conditions -  °F | °C
As of 4:53 AM on Tuesday 21 Oct 2014 (Local Time) from KBAF Reporting Station
Clear Clear  
Wind Chill: 44°   Ceiling: Unl
Heat Index: 44°   Visibility: 10mi
Dew Point: 41°   Wind: 0mph
Humidity: 89%   Direction: NA
Pressure: 29.93"   Gusts: NA
Location:  42.0855°N, 72.9568°W
Report Text: KBAF 210853Z 00000KT 10SM CLR 07/05 A2993 RMK AO2 SLP140 T00670050 58010
Loading
Personal Weather Stations






























Interactive Weather Map
Tropical Storm Tracking
New forecast layout! Learn more

10-Day Weather Forecast

Advertisements
Track Severe Weather on mobile